sensor_id;sensor_type;location;lat;lon;timestamp;temperature;humidity
68354;DHT22;55274;43.060;25.618;2023-04-01T00:00:01;7.40;99.90
68354;DHT22;55274;43.060;25.618;2023-04-01T00:02:26;7.40;99.90
68354;DHT22;55274;43.060;25.618;2023-04-01T00:04:52;7.40;99.90
68354;DHT22;55274;43.060;25.618;2023-04-01T00:07:18;7.40;99.90
68354;DHT22;55274;43.060;25.618;2023-04-01T00:09:44;7.40;99.90
68354;DHT22;55274;43.060;25.618;2023-04-01T00:12:10;7.50;99.90
68354;DHT22;55274;43.060;25.618;2023-04-01T00:14:36;7.50;99.90
68354;DHT22;55274;43.060;25.618;2023-04-01T00:17:03;7.50;99.90
68354;DHT22;55274;43.060;25.618;2023-04-01T00:19:28;7.50;99.90
68354;DHT22;55274;43.060;25.618;2023-04-01T00:21:54;7.50;99.90
68354;DHT22;55274;43.060;25.618;2023-04-01T00:24:20;7.60;99.90
68354;DHT22;55274;43.060;25.618;2023-04-01T00:26:46;7.60;99.90
68354;DHT22;55274;43.060;25.618;2023-04-01T00:29:13;7.60;99.90
68354;DHT22;55274;43.060;25.618;2023-04-01T00:31:38;7.70;99.90
68354;DHT22;55274;43.060;25.618;2023-04-01T00:34:04;7.70;99.90
68354;DHT22;55274;43.060;25.618;2023-04-01T00:36:30;7.70;99.90
68354;DHT22;55274;43.060;25.618;2023-04-01T00:38:57;7.60;99.90
68354;DHT22;55274;43.060;25.618;2023-04-01T00:41:24;7.60;99.90
68354;DHT22;55274;43.060;25.618;2023-04-01T00:43:52;7.60;99.90
68354;DHT22;55274;43.060;25.618;2023-04-01T00:46:18;7.60;99.90
68354;DHT22;55274;43.060;25.618;2023-04-01T00:48:48;7.60;99.90
68354;DHT22;55274;43.060;25.618;2023-04-01T00:51:33;7.60;99.90
68354;DHT22;55274;43.060;25.618;2023-04-01T00:54:02;7.60;99.90
68354;DHT22;55274;43.060;25.618;2023-04-01T00:56:46;7.60;99.90
68354;DHT22;55274;43.060;25.618;2023-04-01T00:59:18;7.50;99.90
68354;DHT22;55274;43.060;25.618;2023-04-01T01:01:44;7.50;99.90
68354;DHT22;55274;43.060;25.618;2023-04-01T01:04:25;7.50;99.90
68354;DHT22;55274;43.060;25.618;2023-04-01T01:10:20;7.40;99.90
68354;DHT22;55274;43.060;25.618;2023-04-01T01:15:58;7.40;99.90
68354;DHT22;55274;43.060;25.618;2023-04-01T01:18:34;7.40;99.90
68354;DHT22;55274;43.060;25.618;2023-04-01T01:24:17;7.30;99.90
68354;DHT22;55274;43.060;25.618;2023-04-01T01:27:03;7.30;99.90
68354;DHT22;55274;43.060;25.618;2023-04-01T01:29:45;7.30;99.90
68354;DHT22;55274;43.060;25.618;2023-04-01T01:32:37;7.30;99.90
68354;DHT22;55274;43.060;25.618;2023-04-01T01:37:37;7.30;99.90
68354;DHT22;55274;43.060;25.618;2023-04-01T01:40:06;7.20;99.90
68354;DHT22;55274;43.060;25.618;2023-04-01T01:42:36;7.20;99.90
68354;DHT22;55274;43.060;25.618;2023-04-01T01:45:04;7.30;99.90
68354;DHT22;55274;43.060;25.618;2023-04-01T01:47:32;7.20;99.90
68354;DHT22;55274;43.060;25.618;2023-04-01T01:49:59;7.20;99.90
68354;DHT22;55274;43.060;25.618;2023-04-01T01:52:29;7.20;99.90
68354;DHT22;55274;43.060;25.618;2023-04-01T01:54:57;7.10;99.90
68354;DHT22;55274;43.060;25.618;2023-04-01T01:57:32;7.10;99.90
68354;DHT22;55274;43.060;25.618;2023-04-01T02:00:04;7.10;99.90
68354;DHT22;55274;43.060;25.618;2023-04-01T02:02:44;7.10;99.90
68354;DHT22;55274;43.060;25.618;2023-04-01T02:05:34;7.10;99.90
68354;DHT22;55274;43.060;25.618;2023-04-01T02:08:07;7.00;99.90
68354;DHT22;55274;43.060;25.618;2023-04-01T02:10:37;7.00;99.90
68354;DHT22;55274;43.060;25.618;2023-04-01T02:13:12;7.00;99.90
68354;DHT22;55274;43.060;25.618;2023-04-01T02:15:44;7.00;99.90
68354;DHT22;55274;43.060;25.618;2023-04-01T02:18:12;7.00;99.90
68354;DHT22;55274;43.060;25.618;2023-04-01T02:20:39;7.00;99.90
68354;DHT22;55274;43.060;25.618;2023-04-01T02:23:06;7.00;99.90
68354;DHT22;55274;43.060;25.618;2023-04-01T02:25:35;7.00;99.90
68354;DHT22;55274;43.060;25.618;2023-04-01T02:28:04;7.00;99.90
68354;DHT22;55274;43.060;25.618;2023-04-01T02:30:34;6.90;99.90
68354;DHT22;55274;43.060;25.618;2023-04-01T02:33:01;6.90;99.90
68354;DHT22;55274;43.060;25.618;2023-04-01T02:35:28;6.90;99.90
68354;DHT22;55274;43.060;25.618;2023-04-01T02:37:55;6.90;99.90
68354;DHT22;55274;43.060;25.618;2023-04-01T02:40:21;6.90;99.90
68354;DHT22;55274;43.060;25.618;2023-04-01T02:42:47;6.90;99.90
68354;DHT22;55274;43.060;25.618;2023-04-01T02:45:14;7.00;99.90
68354;DHT22;55274;43.060;25.618;2023-04-01T02:47:40;6.90;99.90
68354;DHT22;55274;43.060;25.618;2023-04-01T02:50:06;6.90;99.90
68354;DHT22;55274;43.060;25.618;2023-04-01T02:52:32;6.90;99.90
68354;DHT22;55274;43.060;25.618;2023-04-01T02:54:58;6.90;99.90
68354;DHT22;55274;43.060;25.618;2023-04-01T02:57:24;6.90;99.90
68354;DHT22;55274;43.060;25.618;2023-04-01T02:59:50;6.90;99.90
68354;DHT22;55274;43.060;25.618;2023-04-01T03:02:17;6.90;99.90
68354;DHT22;55274;43.060;25.618;2023-04-01T03:04:43;6.90;99.90
68354;DHT22;55274;43.060;25.618;2023-04-01T03:07:09;6.90;99.90
68354;DHT22;55274;43.060;25.618;2023-04-01T03:09:38;6.90;99.90
68354;DHT22;55274;43.060;25.618;2023-04-01T03:12:06;6.80;99.90
68354;DHT22;55274;43.060;25.618;2023-04-01T03:14:31;6.90;99.90
68354;DHT22;55274;43.060;25.618;2023-04-01T03:16:57;6.90;99.90
68354;DHT22;55274;43.060;25.618;2023-04-01T03:19:23;6.90;99.90
68354;DHT22;55274;43.060;25.618;2023-04-01T03:21:48;6.90;99.90
68354;DHT22;55274;43.060;25.618;2023-04-01T03:24:14;6.90;99.90
68354;DHT22;55274;43.060;25.618;2023-04-01T03:26:40;6.90;99.90
68354;DHT22;55274;43.060;25.618;2023-04-01T03:29:06;6.90;99.90
68354;DHT22;55274;43.060;25.618;2023-04-01T03:31:31;6.90;99.90
68354;DHT22;55274;43.060;25.618;2023-04-01T03:33:57;6.90;99.90
68354;DHT22;55274;43.060;25.618;2023-04-01T03:36:23;6.90;99.90
68354;DHT22;55274;43.060;25.618;2023-04-01T03:38:49;6.90;99.90
68354;DHT22;55274;43.060;25.618;2023-04-01T03:41:16;6.90;99.90
68354;DHT22;55274;43.060;25.618;2023-04-01T03:43:42;6.90;99.90
68354;DHT22;55274;43.060;25.618;2023-04-01T03:46:08;6.90;99.90
68354;DHT22;55274;43.060;25.618;2023-04-01T03:48:34;7.00;99.90
68354;DHT22;55274;43.060;25.618;2023-04-01T03:51:00;7.00;99.90
68354;DHT22;55274;43.060;25.618;2023-04-01T03:53:25;7.00;99.90
68354;DHT22;55274;43.060;25.618;2023-04-01T03:55:52;7.00;99.90
68354;DHT22;55274;43.060;25.618;2023-04-01T03:58:18;7.00;99.90
68354;DHT22;55274;43.060;25.618;2023-04-01T04:00:45;7.00;99.90
68354;DHT22;55274;43.060;25.618;2023-04-01T04:03:11;7.00;99.90
68354;DHT22;55274;43.060;25.618;2023-04-01T04:05:37;7.00;99.90
68354;DHT22;55274;43.060;25.618;2023-04-01T04:08:03;7.00;99.90
68354;DHT22;55274;43.060;25.618;2023-04-01T04:10:29;7.00;99.90
68354;DHT22;55274;43.060;25.618;2023-04-01T04:12:55;7.00;99.90
68354;DHT22;55274;43.060;25.618;2023-04-01T04:15:21;7.00;99.90
68354;DHT22;55274;43.060;25.618;2023-04-01T04:17:47;7.10;99.90
68354;DHT22;55274;43.060;25.618;2023-04-01T04:20:13;7.00;99.90
68354;DHT22;55274;43.060;25.618;2023-04-01T04:22:39;7.10;99.90
68354;DHT22;55274;43.060;25.618;2023-04-01T04:25:06;7.10;99.90
68354;DHT22;55274;43.060;25.618;2023-04-01T04:27:32;7.10;99.90
68354;DHT22;55274;43.060;25.618;2023-04-01T04:29:58;7.20;99.90
68354;DHT22;55274;43.060;25.618;2023-04-01T04:32:24;7.20;99.90
68354;DHT22;55274;43.060;25.618;2023-04-01T04:34:49;7.30;99.90
68354;DHT22;55274;43.060;25.618;2023-04-01T04:37:15;7.30;99.90
68354;DHT22;55274;43.060;25.618;2023-04-01T04:39:41;7.40;99.90
68354;DHT22;55274;43.060;25.618;2023-04-01T04:42:07;7.50;99.90
68354;DHT22;55274;43.060;25.618;2023-04-01T04:44:32;7.50;99.90
68354;DHT22;55274;43.060;25.618;2023-04-01T04:46:58;7.50;99.90
68354;DHT22;55274;43.060;25.618;2023-04-01T04:49:24;7.60;99.90
68354;DHT22;55274;43.060;25.618;2023-04-01T04:51:49;7.60;99.90
68354;DHT22;55274;43.060;25.618;2023-04-01T04:54:15;7.60;99.90
68354;DHT22;55274;43.060;25.618;2023-04-01T04:56:41;7.70;99.90
68354;DHT22;55274;43.060;25.618;2023-04-01T04:59:07;7.80;99.90
68354;DHT22;55274;43.060;25.618;2023-04-01T05:01:33;7.90;99.90
68354;DHT22;55274;43.060;25.618;2023-04-01T05:03:59;8.00;99.90
68354;DHT22;55274;43.060;25.618;2023-04-01T05:06:25;8.00;99.90
68354;DHT22;55274;43.060;25.618;2023-04-01T05:08:55;8.10;99.90
68354;DHT22;55274;43.060;25.618;2023-04-01T05:11:21;8.10;99.90
68354;DHT22;55274;43.060;25.618;2023-04-01T05:13:46;8.20;99.90
68354;DHT22;55274;43.060;25.618;2023-04-01T05:16:18;8.20;99.90
68354;DHT22;55274;43.060;25.618;2023-04-01T05:18:45;8.30;99.90
68354;DHT22;55274;43.060;25.618;2023-04-01T05:21:14;8.40;99.90
68354;DHT22;55274;43.060;25.618;2023-04-01T05:23:40;8.50;99.90
68354;DHT22;55274;43.060;25.618;2023-04-01T05:26:09;8.60;99.90
68354;DHT22;55274;43.060;25.618;2023-04-01T05:28:35;8.60;99.90
68354;DHT22;55274;43.060;25.618;2023-04-01T05:31:03;8.70;99.90
68354;DHT22;55274;43.060;25.618;2023-04-01T05:33:30;8.90;99.90
68354;DHT22;55274;43.060;25.618;2023-04-01T05:35:56;9.00;99.90
68354;DHT22;55274;43.060;25.618;2023-04-01T05:38:30;9.10;99.90
68354;DHT22;55274;43.060;25.618;2023-04-01T05:41:00;9.20;99.90
68354;DHT22;55274;43.060;25.618;2023-04-01T05:43:26;9.40;99.90
68354;DHT22;55274;43.060;25.618;2023-04-01T05:45:52;9.50;99.90
68354;DHT22;55274;43.060;25.618;2023-04-01T05:48:17;9.70;99.90
68354;DHT22;55274;43.060;25.618;2023-04-01T05:50:43;9.80;99.90
68354;DHT22;55274;43.060;25.618;2023-04-01T05:53:09;10.00;99.90
68354;DHT22;55274;43.060;25.618;2023-04-01T05:55:36;10.10;99.90
68354;DHT22;55274;43.060;25.618;2023-04-01T05:58:01;10.20;99.90
68354;DHT22;55274;43.060;25.618;2023-04-01T06:00:27;10.20;99.90
68354;DHT22;55274;43.060;25.618;2023-04-01T06:02:53;10.30;99.90
68354;DHT22;55274;43.060;25.618;2023-04-01T06:05:22;10.30;99.90
68354;DHT22;55274;43.060;25.618;2023-04-01T06:07:52;10.40;99.90
68354;DHT22;55274;43.060;25.618;2023-04-01T06:10:21;10.40;99.90
68354;DHT22;55274;43.060;25.618;2023-04-01T06:15:34;10.50;99.90
68354;DHT22;55274;43.060;25.618;2023-04-01T06:18:31;10.50;99.90
68354;DHT22;55274;43.060;25.618;2023-04-01T06:24:07;10.70;99.90
68354;DHT22;55274;43.060;25.618;2023-04-01T06:27:32;10.70;99.90
68354;DHT22;55274;43.060;25.618;2023-04-01T06:30:22;10.80;99.90
68354;DHT22;55274;43.060;25.618;2023-04-01T06:36:01;10.90;99.90
68354;DHT22;55274;43.060;25.618;2023-04-01T06:46:58;11.10;99.90
68354;DHT22;55274;43.060;25.618;2023-04-01T06:55:02;11.20;99.90
68354;DHT22;55274;43.060;25.618;2023-04-01T06:57:43;11.30;99.90
68354;DHT22;55274;43.060;25.618;2023-04-01T07:00:34;11.30;99.90
68354;DHT22;55274;43.060;25.618;2023-04-01T07:03:36;11.40;99.90
68354;DHT22;55274;43.060;25.618;2023-04-01T07:06:08;11.50;99.90
68354;DHT22;55274;43.060;25.618;2023-04-01T07:08:38;11.60;99.90
68354;DHT22;55274;43.060;25.618;2023-04-01T07:11:08;11.60;99.90
68354;DHT22;55274;43.060;25.618;2023-04-01T07:13:44;11.70;99.90
68354;DHT22;55274;43.060;25.618;2023-04-01T07:16:34;11.70;99.90
68354;DHT22;55274;43.060;25.618;2023-04-01T07:19:28;11.80;99.90
68354;DHT22;55274;43.060;25.618;2023-04-01T07:21:58;11.90;99.90
68354;DHT22;55274;43.060;25.618;2023-04-01T07:24:29;12.00;99.90
68354;DHT22;55274;43.060;25.618;2023-04-01T07:26:57;12.10;99.90
68354;DHT22;55274;43.060;25.618;2023-04-01T07:29:25;12.20;99.90
68354;DHT22;55274;43.060;25.618;2023-04-01T07:32:04;12.30;99.90
68354;DHT22;55274;43.060;25.618;2023-04-01T07:45:41;13.00;99.90
68354;DHT22;55274;43.060;25.618;2023-04-01T07:48:43;13.20;99.90
68354;DHT22;55274;43.060;25.618;2023-04-01T07:51:21;13.30;99.90
68354;DHT22;55274;43.060;25.618;2023-04-01T08:02:25;14.20;98.20
68354;DHT22;55274;43.060;25.618;2023-04-01T08:05:10;14.60;96.00
68354;DHT22;55274;43.060;25.618;2023-04-01T08:14:27;15.90;91.50
68354;DHT22;55274;43.060;25.618;2023-04-01T08:22:12;16.70;86.70
68354;DHT22;55274;43.060;25.618;2023-04-01T08:24:45;17.00;84.40
68354;DHT22;55274;43.060;25.618;2023-04-01T08:27:19;17.50;81.80
68354;DHT22;55274;43.060;25.618;2023-04-01T08:29:59;17.70;78.60
68354;DHT22;55274;43.060;25.618;2023-04-01T08:32:38;18.00;78.30
68354;DHT22;55274;43.060;25.618;2023-04-01T08:35:30;18.30;76.30
68354;DHT22;55274;43.060;25.618;2023-04-01T08:38:01;18.60;73.80
68354;DHT22;55274;43.060;25.618;2023-04-01T08:45:48;19.40;68.60
68354;DHT22;55274;43.060;25.618;2023-04-01T08:49:06;19.50;67.20
68354;DHT22;55274;43.060;25.618;2023-04-01T08:57:53;19.50;61.80
68354;DHT22;55274;43.060;25.618;2023-04-01T09:12:16;20.60;58.40
68354;DHT22;55274;43.060;25.618;2023-04-01T09:26:48;20.90;52.70
68354;DHT22;55274;43.060;25.618;2023-04-01T09:35:01;21.80;51.50
68354;DHT22;55274;43.060;25.618;2023-04-01T09:43:25;22.50;48.60
68354;DHT22;55274;43.060;25.618;2023-04-01T09:47:13;23.00;48.20
68354;DHT22;55274;43.060;25.618;2023-04-01T10:14:10;22.10;46.90
68354;DHT22;55274;43.060;25.618;2023-04-01T10:58:56;21.60;51.10
68354;DHT22;55274;43.060;25.618;2023-04-01T11:27:30;23.00;45.50
68354;DHT22;55274;43.060;25.618;2023-04-01T11:32:59;23.00;44.90
68354;DHT22;55274;43.060;25.618;2023-04-01T11:36:32;22.90;45.30
68354;DHT22;55274;43.060;25.618;2023-04-01T11:39:15;23.20;43.00
68354;DHT22;55274;43.060;25.618;2023-04-01T11:44:44;23.20;42.80
68354;DHT22;55274;43.060;25.618;2023-04-01T11:47:27;23.30;44.10
68354;DHT22;55274;43.060;25.618;2023-04-01T12:06:11;23.20;47.50
68354;DHT22;55274;43.060;25.618;2023-04-01T12:14:08;22.80;49.90
68354;DHT22;55274;43.060;25.618;2023-04-01T12:22:11;23.20;49.40
68354;DHT22;55274;43.060;25.618;2023-04-01T12:33:18;23.10;49.50
68354;DHT22;55274;43.060;25.618;2023-04-01T12:36:29;23.00;49.40
68354;DHT22;55274;43.060;25.618;2023-04-01T12:39:26;23.10;49.10
68354;DHT22;55274;43.060;25.618;2023-04-01T12:50:31;23.20;48.80
68354;DHT22;55274;43.060;25.618;2023-04-01T12:53:12;23.50;49.00
68354;DHT22;55274;43.060;25.618;2023-04-01T12:55:47;23.60;49.00
68354;DHT22;55274;43.060;25.618;2023-04-01T12:59:14;23.40;49.40
68354;DHT22;55274;43.060;25.618;2023-04-01T13:01:45;23.30;49.90
68354;DHT22;55274;43.060;25.618;2023-04-01T13:04:51;23.20;51.00
68354;DHT22;55274;43.060;25.618;2023-04-01T13:07:41;23.20;50.70
68354;DHT22;55274;43.060;25.618;2023-04-01T13:16:22;22.30;54.20
68354;DHT22;55274;43.060;25.618;2023-04-01T13:19:35;22.30;54.50
68354;DHT22;55274;43.060;25.618;2023-04-01T13:37:31;21.40;56.10
68354;DHT22;55274;43.060;25.618;2023-04-01T13:43:00;21.40;56.60
68354;DHT22;55274;43.060;25.618;2023-04-01T13:50:57;21.30;56.80
68354;DHT22;55274;43.060;25.618;2023-04-01T13:56:16;21.00;55.50
68354;DHT22;55274;43.060;25.618;2023-04-01T14:13:09;20.30;56.60
68354;DHT22;55274;43.060;25.618;2023-04-01T14:15:50;20.20;57.10
68354;DHT22;55274;43.060;25.618;2023-04-01T14:21:19;20.00;57.70
68354;DHT22;55274;43.060;25.618;2023-04-01T14:29:02;19.60;63.10
68354;DHT22;55274;43.060;25.618;2023-04-01T14:48:28;17.20;81.20
68354;DHT22;55274;43.060;25.618;2023-04-01T14:54:04;16.60;82.60
68354;DHT22;55274;43.060;25.618;2023-04-01T14:56:47;16.50;84.30
68354;DHT22;55274;43.060;25.618;2023-04-01T15:01:55;16.20;85.70
68354;DHT22;55274;43.060;25.618;2023-04-01T15:08:06;15.80;89.20
68354;DHT22;55274;43.060;25.618;2023-04-01T15:23:59;14.50;99.90
68354;DHT22;55274;43.060;25.618;2023-04-01T15:29:51;14.20;99.90
68354;DHT22;55274;43.060;25.618;2023-04-01T15:43:46;14.00;99.90
68354;DHT22;55274;43.060;25.618;2023-04-01T15:46:39;14.00;99.90
68354;DHT22;55274;43.060;25.618;2023-04-01T15:52:43;14.00;99.90
68354;DHT22;55274;43.060;25.618;2023-04-01T16:23:22;13.70;99.90
68354;DHT22;55274;43.060;25.618;2023-04-01T16:25:49;13.70;99.90
68354;DHT22;55274;43.060;25.618;2023-04-01T16:28:34;13.70;99.90
68354;DHT22;55274;43.060;25.618;2023-04-01T16:31:14;13.70;99.90
68354;DHT22;55274;43.060;25.618;2023-04-01T16:33:57;13.70;99.90
68354;DHT22;55274;43.060;25.618;2023-04-01T16:36:26;13.60;99.90
68354;DHT22;55274;43.060;25.618;2023-04-01T16:47:45;13.30;99.90
68354;DHT22;55274;43.060;25.618;2023-04-01T16:50:25;13.30;99.90
68354;DHT22;55274;43.060;25.618;2023-04-01T16:55:56;13.20;99.90
68354;DHT22;55274;43.060;25.618;2023-04-01T16:58:40;13.20;99.90
68354;DHT22;55274;43.060;25.618;2023-04-01T17:01:20;13.20;99.90
68354;DHT22;55274;43.060;25.618;2023-04-01T17:03:53;13.20;99.90
68354;DHT22;55274;43.060;25.618;2023-04-01T17:30:41;12.90;99.90
68354;DHT22;55274;43.060;25.618;2023-04-01T17:35:59;12.80;99.90
68354;DHT22;55274;43.060;25.618;2023-04-01T17:41:46;12.70;99.90
68354;DHT22;55274;43.060;25.618;2023-04-01T18:02:54;12.20;99.90
68354;DHT22;55274;43.060;25.618;2023-04-01T18:05:57;12.20;99.90
68354;DHT22;55274;43.060;25.618;2023-04-01T18:17:14;12.10;99.90
68354;DHT22;55274;43.060;25.618;2023-04-01T18:27:44;12.00;99.90
68354;DHT22;55274;43.060;25.618;2023-04-01T18:33:01;12.00;99.90
68354;DHT22;55274;43.060;25.618;2023-04-01T18:35:48;12.00;99.90
68354;DHT22;55274;43.060;25.618;2023-04-01T18:38:24;12.00;99.90
68354;DHT22;55274;43.060;25.618;2023-04-01T18:41:15;11.90;99.90
68354;DHT22;55274;43.060;25.618;2023-04-01T18:52:43;12.00;99.90
68354;DHT22;55274;43.060;25.618;2023-04-01T18:57:51;12.10;99.90
68354;DHT22;55274;43.060;25.618;2023-04-01T19:00:26;12.10;99.90
68354;DHT22;55274;43.060;25.618;2023-04-01T19:03:01;12.10;99.90
68354;DHT22;55274;43.060;25.618;2023-04-01T19:05:38;12.10;99.90
68354;DHT22;55274;43.060;25.618;2023-04-01T19:16:40;12.00;99.90
68354;DHT22;55274;43.060;25.618;2023-04-01T19:21:58;11.90;99.90
68354;DHT22;55274;43.060;25.618;2023-04-01T19:24:47;11.90;99.90
68354;DHT22;55274;43.060;25.618;2023-04-01T19:27:26;11.90;99.90
68354;DHT22;55274;43.060;25.618;2023-04-01T19:30:12;11.80;99.90
68354;DHT22;55274;43.060;25.618;2023-04-01T19:38:43;11.80;99.90
68354;DHT22;55274;43.060;25.618;2023-04-01T19:52:48;11.90;99.90
68354;DHT22;55274;43.060;25.618;2023-04-01T20:00:39;11.90;99.90
68354;DHT22;55274;43.060;25.618;2023-04-01T20:25:43;11.60;99.90
68354;DHT22;55274;43.060;25.618;2023-04-01T20:28:20;11.60;99.90
68354;DHT22;55274;43.060;25.618;2023-04-01T20:31:11;11.50;99.90
68354;DHT22;55274;43.060;25.618;2023-04-01T20:50:29;11.10;99.90
68354;DHT22;55274;43.060;25.618;2023-04-01T20:53:05;11.00;99.90
68354;DHT22;55274;43.060;25.618;2023-04-01T20:56:10;11.00;99.90
68354;DHT22;55274;43.060;25.618;2023-04-01T20:58:49;11.00;99.90
68354;DHT22;55274;43.060;25.618;2023-04-01T21:04:27;10.80;99.90
68354;DHT22;55274;43.060;25.618;2023-04-01T21:16:14;10.50;99.90
68354;DHT22;55274;43.060;25.618;2023-04-01T21:24:31;10.30;99.90
68354;DHT22;55274;43.060;25.618;2023-04-01T21:27:13;10.20;99.90
68354;DHT22;55274;43.060;25.618;2023-04-01T21:30:07;10.10;99.90
68354;DHT22;55274;43.060;25.618;2023-04-01T21:41:14;9.90;99.90
68354;DHT22;55274;43.060;25.618;2023-04-01T21:54:50;9.60;99.90
68354;DHT22;55274;43.060;25.618;2023-04-01T22:00:13;9.50;99.90
68354;DHT22;55274;43.060;25.618;2023-04-01T22:10:59;9.70;99.90
68354;DHT22;55274;43.060;25.618;2023-04-01T22:13:36;9.70;99.90
68354;DHT22;55274;43.060;25.618;2023-04-01T22:19:02;9.60;99.90
68354;DHT22;55274;43.060;25.618;2023-04-01T22:25:25;9.60;99.90
68354;DHT22;55274;43.060;25.618;2023-04-01T22:30:30;9.70;99.90
68354;DHT22;55274;43.060;25.618;2023-04-01T22:35:44;9.70;99.90
68354;DHT22;55274;43.060;25.618;2023-04-01T22:44:01;9.70;99.90
68354;DHT22;55274;43.060;25.618;2023-04-01T22:46:49;9.70;99.90
68354;DHT22;55274;43.060;25.618;2023-04-01T22:54:47;9.70;99.90
68354;DHT22;55274;43.060;25.618;2023-04-01T22:57:59;9.80;99.90
68354;DHT22;55274;43.060;25.618;2023-04-01T23:00:06;9.80;99.90
68354;DHT22;55274;43.060;25.618;2023-04-01T23:03:01;9.80;99.90
68354;DHT22;55274;43.060;25.618;2023-04-01T23:05:24;9.80;99.90
68354;DHT22;55274;43.060;25.618;2023-04-01T23:11:00;9.80;99.90
68354;DHT22;55274;43.060;25.618;2023-04-01T23:13:44;9.80;99.90
68354;DHT22;55274;43.060;25.618;2023-04-01T23:16:14;9.80;99.90
68354;DHT22;55274;43.060;25.618;2023-04-01T23:19:18;9.80;99.90
68354;DHT22;55274;43.060;25.618;2023-04-01T23:21:51;9.80;99.90
68354;DHT22;55274;43.060;25.618;2023-04-01T23:24:26;9.80;99.90
68354;DHT22;55274;43.060;25.618;2023-04-01T23:27:11;9.80;99.90
68354;DHT22;55274;43.060;25.618;2023-04-01T23:29:38;9.80;99.90
68354;DHT22;55274;43.060;25.618;2023-04-01T23:32:18;9.80;99.90
68354;DHT22;55274;43.060;25.618;2023-04-01T23:34:51;9.80;99.90
68354;DHT22;55274;43.060;25.618;2023-04-01T23:37:17;9.80;99.90
68354;DHT22;55274;43.060;25.618;2023-04-01T23:39:55;9.80;99.90
68354;DHT22;55274;43.060;25.618;2023-04-01T23:44:52;9.90;99.90
68354;DHT22;55274;43.060;25.618;2023-04-01T23:47:25;9.90;99.90
68354;DHT22;55274;43.060;25.618;2023-04-01T23:49:58;9.90;99.90
68354;DHT22;55274;43.060;25.618;2023-04-01T23:52:34;9.90;99.90
68354;DHT22;55274;43.060;25.618;2023-04-01T23:55:03;9.90;99.90
68354;DHT22;55274;43.060;25.618;2023-04-01T23:57:34;9.90;99.90
